Grant, CO

11:09 AM MDT on October 21, 2014 (GMT -0600)
Woodmoor | Change Station
CLOSE
Current Station
Personal Weather Station
Location: Breckenridge, CO
Elevation: 10591 ft
Nearby Weather Stations

Elev 10591 ft 39.47 °N, 106.02 °W | Updated 3 minutes ago

Mostly Cloudy
Mostly Cloudy
47.6 °F
Feels Like 48 °F
N
0.0
Wind Variable Wind from WSW
Gusts 9.0 mph

Today
High -- | Low -- °F
--% Chance of Precip.
Yesterday
High -- | Low -- °F
Precip. -- in
7:19 AM 6:15 PM
Waning Crescent, 5% visible
Pressure 30.42 in
Visibility 10.0 miles
Clouds Mostly Cloudy 2700 ft
Overcast 3300 ft
Windchill 48 °F
Dew Point 29 °F
Humidity 48%
Rainfall 0.00 in
Snow Depth 1 in , 0 in , 0 in
UV 1 out of 12
Pollen 3.00 out of 12
Air Quality Not available.
Flu Activity Sporadic
METAR K0CO 211650Z AUTO 26005KT 10SM BKN027 OVC033 01/00 A3042 RMK AO2

More Conditions Fewer Conditions

Pressure 30.42 in
Visibility 10.0 miles
Clouds Mostly Cloudy 2700 ft
Overcast 3300 ft
Windchill 48 °F
Dew Point 29 °F
Humidity 48%
Rainfall 0.00 in
Snow Depth 1 in , 0 in , 0 in
UV 1 out of 12
Pollen 3.00 out of 12
Air Quality Not available.
Flu Activity Sporadic
METAR K0CO 211650Z AUTO 26005KT 10SM BKN027 OVC033 01/00 A3042 RMK AO2

More Conditions Fewer Conditions

10-Day Weather Forecast

Almanac

Astronomy

Oct. 21, 2014 Rise Set
Actual Time 7:19 AM MDT 6:15 PM MDT
Civil Twilight 6:51 AM MDT 6:42 PM MDT
Nautical Twilight 6:20 AM MDT 7:13 PM MDT
Astronomical Twilight 5:49 AM MDT 7:44 PM MDT
Moon 5:06 AM MDT 5:10 PM MDT
Length of Visible Light 11h 50m
Length of Day
10h 56m
Tomorrow will be 2m 26s shorter.
Waning Crescent, 5% of the Moon is Illuminated
Today
Waning Crescent
Oct 23
New
Oct 30
First Quarter
Nov 6
Full
Nov 14
Last Quarter

Today's Extremes

State Highs State Lows

Community

WunderPhotos

Upload Photos

1,763,713 photos uploaded!

Nearby

Snow Depth

Station Depth Elevation
Jackwhacker Gulch 1 in 10960 ft
Michigan Creek 0 in 10600 ft
Grizzly Peak 0 in 11100 ft
Echo Lake 0 in 10600 ft
Loveland Basin 2 in 11400 ft

Earthquake Activity

City Distance Mag. Time & Date
No recent earthquake activity has been reported nearby.
Minimum magnitude displayed is 2.5.

Coastal Water Temperatures

Place Temperature
No Stations Reporting

Nearby Weather Stations